createdAt,value
2024-01-31T00:00:36.323Z,100847.13
2024-01-31T00:01:41.055Z,100855.72
2024-01-31T00:02:42.688Z,100860.84
2024-01-31T00:03:46.270Z,100850.03
2024-01-31T00:04:47.947Z,100861.31
2024-01-31T00:05:50.137Z,100842.91
2024-01-31T00:06:52.191Z,100858.22
2024-01-31T00:07:53.819Z,100853.06
2024-01-31T00:08:56.706Z,100843.69
2024-01-31T00:09:58.319Z,100856.41
2024-01-31T00:11:00.030Z,100847.03
2024-01-31T00:12:01.672Z,100837.97
2024-01-31T00:13:03.318Z,100836.97
2024-01-31T00:14:07.872Z,100837.97
2024-01-31T00:15:09.722Z,100832.91
2024-01-31T00:16:11.297Z,100852.44
2024-01-31T00:17:13.022Z,100838.66
2024-01-31T00:18:14.661Z,100837.75
2024-01-31T00:19:16.419Z,100839.50
2024-01-31T00:20:18.036Z,100835.38
2024-01-31T00:21:19.833Z,100837.34
2024-01-31T00:22:21.470Z,100846.59
2024-01-31T00:23:24.303Z,100829.56
2024-01-31T00:24:25.944Z,100831.38
2024-01-31T00:25:27.629Z,100837.97
2024-01-31T00:26:29.207Z,100828.13
2024-01-31T00:27:30.796Z,100842.59
2024-01-31T00:28:32.454Z,100840.69
2024-01-31T00:29:36.210Z,100844.94
2024-01-31T00:30:39.526Z,100839.75
2024-01-31T00:31:41.130Z,100838.94
2024-01-31T00:32:42.762Z,100839.75
2024-01-31T00:33:44.448Z,100845.09
2024-01-31T00:34:46.257Z,100841.66
2024-01-31T00:35:47.842Z,100841.75
2024-01-31T00:36:49.414Z,100835.72
2024-01-31T00:37:52.009Z,100839.25
2024-01-31T00:38:53.595Z,100839.00
2024-01-31T00:39:55.226Z,100836.56
2024-01-31T00:40:56.805Z,100839.16
2024-01-31T00:41:59.319Z,100844.25
2024-01-31T00:43:00.998Z,100846.78
2024-01-31T00:44:02.621Z,100844.41
2024-01-31T00:45:04.753Z,100832.53
2024-01-31T00:46:06.512Z,100838.47
2024-01-31T00:47:08.296Z,100845.25
2024-01-31T00:48:09.992Z,100842.81
2024-01-31T00:49:11.672Z,100846.16
2024-01-31T00:50:16.680Z,100832.81
2024-01-31T00:51:18.244Z,100849.91
2024-01-31T00:52:19.882Z,100829.66
2024-01-31T00:53:21.509Z,100835.66
2024-01-31T00:54:23.129Z,100836.19
2024-01-31T00:55:24.873Z,100848.09
2024-01-31T00:56:26.457Z,100842.91
2024-01-31T00:57:28.035Z,100840.31
2024-01-31T00:58:29.635Z,100840.53
2024-01-31T00:59:31.442Z,100835.38
2024-01-31T01:00:33.376Z,100836.19
2024-01-31T01:01:35.058Z,100842.13
2024-01-31T01:02:37.515Z,100833.63
2024-01-31T01:03:39.068Z,100839.63
2024-01-31T01:04:40.799Z,100822.22
2024-01-31T01:05:42.385Z,100833.41
2024-01-31T01:06:44.081Z,100833.84
2024-01-31T01:07:46.902Z,100838.75
2024-01-31T01:08:48.623Z,100843.69
2024-01-31T01:09:50.766Z,100839.44
2024-01-31T01:10:52.485Z,100835.31
2024-01-31T01:11:54.101Z,100830.97
2024-01-31T01:12:57.740Z,100831.81
2024-01-31T01:13:59.331Z,100831.25
2024-01-31T01:15:09.122Z,100830.03
2024-01-31T01:16:17.042Z,100828.13
2024-01-31T01:17:18.649Z,100788.13
2024-01-31T01:18:20.231Z,100823.94
2024-01-31T01:19:21.851Z,100815.59
2024-01-31T01:20:23.455Z,100828.97
2024-01-31T01:21:25.044Z,100829.88
2024-01-31T01:22:26.784Z,100828.88
2024-01-31T01:23:28.393Z,100820.59
2024-01-31T01:24:29.952Z,100821.34
2024-01-31T01:25:31.541Z,100817.84
2024-01-31T01:26:33.228Z,100816.25
2024-01-31T01:27:35.979Z,100824.53
2024-01-31T01:28:39.595Z,100812.66
2024-01-31T01:29:41.226Z,100822.88
2024-01-31T01:30:42.729Z,100824.63
2024-01-31T01:31:44.350Z,100827.22
2024-01-31T01:32:46.110Z,100825.53
2024-01-31T01:33:49.010Z,100819.53
2024-01-31T01:34:50.752Z,100816.94
2024-01-31T01:35:52.864Z,100823.78
2024-01-31T01:36:54.370Z,100802.56
2024-01-31T01:37:56.019Z,100820.28
2024-01-31T01:38:57.563Z,100820.75
2024-01-31T01:39:59.130Z,100817.72
2024-01-31T01:41:00.683Z,100806.78
2024-01-31T01:42:02.710Z,100797.78
2024-01-31T01:43:16.013Z,100818.88
2024-01-31T01:44:17.920Z,100813.84
2024-01-31T01:45:19.477Z,100812.03
2024-01-31T01:46:23.261Z,100817.72
2024-01-31T01:47:25.630Z,100805.88
2024-01-31T01:48:27.353Z,100806.09
2024-01-31T01:49:30.308Z,100811.50
2024-01-31T01:50:31.850Z,100807.34
2024-01-31T01:51:33.877Z,100802.16
2024-01-31T01:52:35.941Z,100814.84
2024-01-31T01:53:38.647Z,100811.66
2024-01-31T01:54:40.357Z,100807.63
2024-01-31T01:55:43.114Z,100804.91
2024-01-31T01:56:46.704Z,100810.97
2024-01-31T01:57:48.683Z,100807.94
2024-01-31T01:58:50.751Z,100799.22
2024-01-31T01:59:52.963Z,100801.25
2024-01-31T02:00:54.929Z,100800.72
2024-01-31T02:01:56.913Z,100804.06
2024-01-31T02:02:58.780Z,100795.69
2024-01-31T02:04:01.477Z,100805.66
2024-01-31T02:05:03.542Z,100808.97
2024-01-31T02:06:05.527Z,100814.84
2024-01-31T02:07:07.341Z,100815.59
2024-01-31T02:08:09.411Z,100813.94
2024-01-31T02:09:11.464Z,100811.34
2024-01-31T02:10:13.105Z,100795.31
2024-01-31T02:11:14.800Z,100802.22
2024-01-31T02:12:16.496Z,100810.66
2024-01-31T02:13:18.165Z,100806.66
2024-01-31T02:14:19.843Z,100815.00
2024-01-31T02:15:21.401Z,100808.91
2024-01-31T02:16:22.969Z,100805.66
2024-01-31T02:17:24.594Z,100805.56
2024-01-31T02:18:29.989Z,100802.22
2024-01-31T02:19:31.700Z,100808.81
2024-01-31T02:20:33.343Z,100806.38
2024-01-31T02:21:38.130Z,100802.22
2024-01-31T02:22:39.848Z,100810.66
2024-01-31T02:23:41.450Z,100808.81
2024-01-31T02:24:43.005Z,100807.91
2024-01-31T02:25:46.079Z,100792.72
2024-01-31T02:26:47.980Z,100802.81
2024-01-31T02:27:49.542Z,100806.16
2024-01-31T02:28:51.160Z,100802.66
2024-01-31T02:29:52.685Z,100800.09
2024-01-31T02:30:55.058Z,100801.69
2024-01-31T02:31:56.625Z,100801.75
2024-01-31T02:32:58.266Z,100802.53
2024-01-31T02:34:00.038Z,100795.97
2024-01-31T02:35:01.800Z,100792.19
2024-01-31T02:36:03.641Z,100795.38
2024-01-31T02:37:05.273Z,100797.78
2024-01-31T02:38:06.914Z,100794.47
2024-01-31T02:39:08.605Z,100797.66
2024-01-31T02:40:10.423Z,100796.16
2024-01-31T02:41:12.004Z,100793.63
2024-01-31T02:42:15.510Z,100801.47
2024-01-31T02:43:17.391Z,100786.56
2024-01-31T02:44:23.145Z,100802.69
2024-01-31T02:45:24.851Z,100796.84
2024-01-31T02:46:26.517Z,100798.59
2024-01-31T02:47:28.093Z,100800.34
2024-01-31T02:48:29.696Z,100788.47
2024-01-31T02:49:31.595Z,100793.72
2024-01-31T02:50:34.011Z,100792.94
2024-01-31T02:51:35.751Z,100793.97
2024-01-31T02:52:37.424Z,100799.94
2024-01-31T02:53:39.023Z,100784.44
2024-01-31T02:54:40.572Z,100794.69
2024-01-31T02:55:42.267Z,100793.84
2024-01-31T02:56:44.092Z,100787.97
2024-01-31T02:57:45.916Z,100791.53
2024-01-31T02:58:47.484Z,100798.19
2024-01-31T02:59:49.058Z,100789.53
2024-01-31T03:00:50.620Z,100781.41
2024-01-31T03:01:52.315Z,100798.59
2024-01-31T03:02:53.906Z,100805.56
2024-01-31T03:03:55.505Z,100806.66
2024-01-31T03:04:57.234Z,100791.16
2024-01-31T03:05:58.934Z,100799.34
2024-01-31T03:07:00.690Z,100791.59
2024-01-31T03:08:02.314Z,100797.53
2024-01-31T03:09:04.031Z,100805.28
2024-01-31T03:10:06.386Z,100801.78
2024-01-31T03:11:07.928Z,100798.44
2024-01-31T03:12:09.532Z,100798.59
2024-01-31T03:13:12.382Z,100790.97
2024-01-31T03:14:14.019Z,100801.03
2024-01-31T03:15:15.562Z,100794.88
2024-01-31T03:16:17.160Z,100798.38
2024-01-31T03:17:18.710Z,100794.94
2024-01-31T03:18:20.410Z,100799.22
2024-01-31T03:19:22.062Z,100800.13
2024-01-31T03:20:23.807Z,100789.72
2024-01-31T03:21:25.415Z,100799.94
2024-01-31T03:22:26.983Z,100797.34
2024-01-31T03:23:28.537Z,100798.19
2024-01-31T03:24:30.102Z,100792.38
2024-01-31T03:25:31.737Z,100783.00
2024-01-31T03:26:33.336Z,100785.59
2024-01-31T03:27:35.204Z,100788.16
2024-01-31T03:28:36.828Z,100796.31
2024-01-31T03:29:38.490Z,100791.59
2024-01-31T03:30:40.013Z,100797.66
2024-01-31T03:31:41.720Z,100788.53
2024-01-31T03:32:43.689Z,100792.19
2024-01-31T03:33:45.656Z,100798.81
2024-01-31T03:34:47.413Z,100790.22
2024-01-31T03:35:49.244Z,100798.44
2024-01-31T03:36:51.001Z,100794.88
2024-01-31T03:37:52.594Z,100784.75
2024-01-31T03:38:55.553Z,100794.94
2024-01-31T03:39:57.169Z,100790.75
2024-01-31T03:40:58.784Z,100792.66
2024-01-31T03:42:00.638Z,100785.56
2024-01-31T03:43:02.326Z,100768.16
2024-01-31T03:44:03.963Z,100788.22
2024-01-31T03:45:07.018Z,100787.25
2024-01-31T03:46:08.748Z,100783.81
2024-01-31T03:47:10.381Z,100783.75
2024-01-31T03:48:12.094Z,100794.94
2024-01-31T03:49:13.822Z,100790.47
2024-01-31T03:50:15.478Z,100794.78
2024-01-31T03:51:24.689Z,100791.91
2024-01-31T03:52:26.444Z,100786.88
2024-01-31T03:53:28.281Z,100792.56
2024-01-31T03:54:29.957Z,100793.25
2024-01-31T03:55:33.914Z,100782.91
2024-01-31T03:56:35.672Z,100794.03
2024-01-31T03:57:37.672Z,100781.38
2024-01-31T03:58:42.902Z,100776.53
2024-01-31T03:59:44.520Z,100777.22
2024-01-31T04:00:46.220Z,100782.16
2024-01-31T04:01:51.528Z,100779.44
2024-01-31T04:02:53.124Z,100776.31
2024-01-31T04:03:54.724Z,100780.16
2024-01-31T04:04:56.449Z,100780.16
2024-01-31T04:05:58.097Z,100775.19
2024-01-31T04:06:59.702Z,100777.50
2024-01-31T04:08:01.317Z,100775.69
2024-01-31T04:09:02.889Z,100765.16
2024-01-31T04:10:04.881Z,100781.16
2024-01-31T04:11:06.646Z,100774.25
2024-01-31T04:12:08.421Z,100772.66
2024-01-31T04:13:10.018Z,100772.66
2024-01-31T04:14:11.636Z,100776.31
2024-01-31T04:15:13.216Z,100773.81
2024-01-31T04:16:17.769Z,100777.06
2024-01-31T04:17:20.393Z,100762.00
2024-01-31T04:18:22.291Z,100773.56
2024-01-31T04:19:23.974Z,100779.56
2024-01-31T04:20:25.677Z,100776.97
2024-01-31T04:21:27.290Z,100779.88
2024-01-31T04:22:28.850Z,100780.72
2024-01-31T04:23:30.494Z,100785.19
2024-01-31T04:24:32.019Z,100782.63
2024-01-31T04:25:33.687Z,100774.47
2024-01-31T04:26:42.747Z,100773.63
2024-01-31T04:27:44.276Z,100788.41
2024-01-31T04:28:46.233Z,100778.00
2024-01-31T04:29:48.187Z,100783.00
2024-01-31T04:30:49.936Z,100778.81
2024-01-31T04:31:54.621Z,100783.75
2024-01-31T04:32:56.245Z,100784.59
2024-01-31T04:33:57.978Z,100778.59
2024-01-31T04:34:59.630Z,100786.97
2024-01-31T04:36:01.232Z,100784.31
2024-01-31T04:37:02.839Z,100789.31
2024-01-31T04:38:04.559Z,100784.91
2024-01-31T04:39:06.122Z,100780.81
2024-01-31T04:40:08.699Z,100785.66
2024-01-31T04:41:10.379Z,100783.91
2024-01-31T04:42:11.924Z,100787.47
2024-01-31T04:43:19.773Z,100789.00
2024-01-31T04:44:21.347Z,100787.19
2024-01-31T04:45:22.959Z,100774.56
2024-01-31T04:46:24.589Z,100784.53
2024-01-31T04:47:27.229Z,100771.97
2024-01-31T04:48:28.945Z,100776.91
2024-01-31T04:49:30.830Z,100790.69
2024-01-31T04:50:32.640Z,100793.28
2024-01-31T04:51:34.233Z,100790.69
2024-01-31T04:52:36.425Z,100788.09
2024-01-31T04:53:38.018Z,100790.75
2024-01-31T04:54:42.626Z,100787.47
2024-01-31T04:55:45.863Z,100796.00
2024-01-31T04:56:47.540Z,100784.31
2024-01-31T04:57:49.135Z,100799.50
2024-01-31T04:58:50.742Z,100784.31
2024-01-31T04:59:54.583Z,100795.31
2024-01-31T05:00:57.720Z,100786.28
2024-01-31T05:01:59.406Z,100797.00
2024-01-31T05:03:01.114Z,100806.34
2024-01-31T05:04:03.012Z,100798.72
2024-01-31T05:05:05.333Z,100810.69
2024-01-31T05:06:07.053Z,100805.50
2024-01-31T05:07:08.919Z,100809.97
2024-01-31T05:08:10.588Z,100809.97
2024-01-31T05:09:12.253Z,100811.84
2024-01-31T05:10:14.145Z,100806.50
2024-01-31T05:11:15.955Z,100805.81
2024-01-31T05:12:17.526Z,100804.06
2024-01-31T05:13:19.168Z,100799.81
2024-01-31T05:14:21.437Z,100803.06
2024-01-31T05:15:23.042Z,100796.31
2024-01-31T05:16:24.796Z,100805.56
2024-01-31T05:17:26.478Z,100802.09
2024-01-31T05:18:28.239Z,100803.00
2024-01-31T05:19:31.178Z,100804.66
2024-01-31T05:20:33.175Z,100802.16
2024-01-31T05:21:34.750Z,100803.84
2024-01-31T05:22:36.323Z,100797.97
2024-01-31T05:23:39.072Z,100796.63
2024-01-31T05:24:41.732Z,100800.03
2024-01-31T05:25:43.521Z,100802.53
2024-01-31T05:26:47.403Z,100802.53
2024-01-31T05:27:52.185Z,100801.72
2024-01-31T05:28:53.769Z,100790.38
2024-01-31T05:29:55.315Z,100796.06
2024-01-31T05:30:56.879Z,100801.44
2024-01-31T05:31:58.932Z,100804.34
2024-01-31T05:33:00.829Z,100780.91
2024-01-31T05:34:02.913Z,100797.34
2024-01-31T05:35:04.992Z,100801.44
2024-01-31T05:36:07.928Z,100803.13
2024-01-31T05:37:09.548Z,100793.53
2024-01-31T05:38:11.134Z,100791.59
2024-01-31T05:39:12.684Z,100785.66
2024-01-31T05:40:17.957Z,100792.31
2024-01-31T05:41:19.601Z,100784.69
2024-01-31T05:42:21.197Z,100774.47
2024-01-31T05:43:22.780Z,100788.69
2024-01-31T05:44:24.430Z,100793.84
2024-01-31T05:45:26.352Z,100779.50
2024-01-31T05:46:27.990Z,100792.88
2024-01-31T05:47:29.807Z,100789.66
2024-01-31T05:48:31.434Z,100798.13
2024-01-31T05:49:33.173Z,100792.31
2024-01-31T05:50:35.193Z,100799.03
2024-01-31T05:51:37.206Z,100796.31
2024-01-31T05:52:39.032Z,100792.75
2024-01-31T05:53:41.443Z,100792.03
2024-01-31T05:54:43.222Z,100798.81
2024-01-31T05:55:44.940Z,100789.97
2024-01-31T05:56:46.609Z,100793.09
2024-01-31T05:57:51.434Z,100792.78
2024-01-31T05:58:52.990Z,100795.09
2024-01-31T05:59:54.524Z,100780.63
2024-01-31T06:00:56.252Z,100788.69
2024-01-31T06:01:58.807Z,100791.22
2024-01-31T06:03:01.244Z,100786.72
2024-01-31T06:04:05.273Z,100792.66
2024-01-31T06:05:07.553Z,100781.56
2024-01-31T06:06:09.255Z,100788.22
2024-01-31T06:07:13.506Z,100791.44
2024-01-31T06:08:15.170Z,100790.53
2024-01-31T06:09:16.815Z,100775.09
2024-01-31T06:10:18.502Z,100788.38
2024-01-31T06:11:20.186Z,100786.56
2024-01-31T06:12:21.711Z,100784.97
2024-01-31T06:13:23.274Z,100790.13
2024-01-31T06:14:24.883Z,100792.50
2024-01-31T06:15:26.577Z,100790.84
2024-01-31T06:16:28.309Z,100792.44
2024-01-31T06:17:29.888Z,100789.16
2024-01-31T06:18:35.425Z,100797.34
2024-01-31T06:19:39.174Z,100797.06
2024-01-31T06:20:42.031Z,100789.53
2024-01-31T06:21:43.661Z,100791.91
2024-01-31T06:22:45.465Z,100802.03
2024-01-31T06:23:47.852Z,100804.69
2024-01-31T06:24:49.476Z,100805.25
2024-01-31T06:25:51.071Z,100813.78
2024-01-31T06:26:52.665Z,100812.72
2024-01-31T06:27:54.465Z,100805.88
2024-01-31T06:28:56.110Z,100791.28
2024-01-31T06:29:57.818Z,100806.38
2024-01-31T06:31:04.834Z,100797.78
2024-01-31T06:32:07.328Z,100795.97
2024-01-31T06:33:09.420Z,100810.88
2024-01-31T06:34:11.140Z,100807.22
2024-01-31T06:35:12.932Z,100801.19
2024-01-31T06:36:14.565Z,100806.06
2024-01-31T06:37:16.854Z,100816.94
2024-01-31T06:38:18.525Z,100808.25
2024-01-31T06:39:20.720Z,100808.19
2024-01-31T06:40:23.148Z,100813.28
2024-01-31T06:41:24.688Z,100813.84
2024-01-31T06:42:26.450Z,100806.84
2024-01-31T06:43:28.106Z,100794.06
2024-01-31T06:44:29.763Z,100802.44
2024-01-31T06:45:31.390Z,100805.78
2024-01-31T06:46:33.019Z,100787.97
2024-01-31T06:47:34.764Z,100806.97
2024-01-31T06:48:36.939Z,100807.38
2024-01-31T06:49:38.850Z,100820.00
2024-01-31T06:50:40.476Z,100802.31
2024-01-31T06:51:42.111Z,100806.00
2024-01-31T06:52:43.783Z,100804.31
2024-01-31T06:53:45.725Z,100814.16
2024-01-31T06:54:47.854Z,100812.34
2024-01-31T06:55:49.486Z,100814.41
2024-01-31T06:56:51.065Z,100810.91
2024-01-31T06:57:53.089Z,100815.66
2024-01-31T06:58:56.311Z,100808.84
2024-01-31T06:59:57.871Z,100813.22
2024-01-31T07:01:02.741Z,100816.66
2024-01-31T07:02:04.632Z,100807.50
2024-01-31T07:03:06.446Z,100814.75
2024-01-31T07:04:08.571Z,100815.34
2024-01-31T07:05:10.324Z,100814.66
2024-01-31T07:06:12.761Z,100812.06
2024-01-31T07:07:14.703Z,100813.91
2024-01-31T07:08:16.477Z,100817.09
2024-01-31T07:09:18.149Z,100821.09
2024-01-31T07:10:19.844Z,100813.22
2024-01-31T07:11:22.142Z,100812.22
2024-01-31T07:12:23.717Z,100818.84
2024-01-31T07:13:25.324Z,100801.84
2024-01-31T07:14:26.902Z,100822.34
2024-01-31T07:15:28.569Z,100815.78
2024-01-31T07:16:30.392Z,100824.88
2024-01-31T07:17:32.294Z,100820.28
2024-01-31T07:18:33.937Z,100816.91
2024-01-31T07:19:35.573Z,100811.75
2024-01-31T07:20:37.213Z,100812.41
2024-01-31T07:21:38.765Z,100803.56
2024-01-31T07:22:40.426Z,100798.63
2024-01-31T07:23:41.996Z,100801.97
2024-01-31T07:24:44.663Z,100798.06
2024-01-31T07:25:46.367Z,100802.84
2024-01-31T07:26:48.381Z,100803.69
2024-01-31T07:27:51.265Z,100801.31
2024-01-31T07:28:53.199Z,100798.81
2024-01-31T07:29:54.804Z,100801.53
2024-01-31T07:30:56.387Z,100791.50
2024-01-31T07:31:58.002Z,100799.44
2024-01-31T07:32:59.562Z,100788.94
2024-01-31T07:34:01.397Z,100797.53
2024-01-31T07:35:03.020Z,100788.72
2024-01-31T07:36:05.036Z,100787.34
2024-01-31T07:37:06.942Z,100780.22
2024-01-31T07:38:08.532Z,100781.72
2024-01-31T07:39:10.959Z,100776.41
2024-01-31T07:40:12.969Z,100775.75
2024-01-31T07:41:15.125Z,100789.84
2024-01-31T07:42:16.693Z,100788.13
2024-01-31T07:43:18.333Z,100787.88
2024-01-31T07:44:19.898Z,100782.75
2024-01-31T07:45:21.650Z,100781.06
2024-01-31T07:46:23.376Z,100782.78
2024-01-31T07:47:25.115Z,100791.25
2024-01-31T07:48:26.702Z,100782.75
2024-01-31T07:49:28.300Z,100787.06
2024-01-31T07:50:33.988Z,100783.31
2024-01-31T07:51:44.852Z,100785.19
2024-01-31T07:52:46.665Z,100777.88
2024-01-31T07:53:48.371Z,100768.66
2024-01-31T07:54:49.932Z,100782.69
2024-01-31T07:55:51.710Z,100776.41
2024-01-31T07:56:53.437Z,100769.59
2024-01-31T07:57:54.963Z,100776.44
2024-01-31T07:58:56.553Z,100774.69
2024-01-31T07:59:58.141Z,100779.03
2024-01-31T08:01:00.186Z,100780.50
2024-01-31T08:02:02.107Z,100775.34
2024-01-31T08:03:04.732Z,100771.66
2024-01-31T08:04:06.603Z,100765.91
2024-01-31T08:05:08.428Z,100772.97
2024-01-31T08:06:10.073Z,100761.44
2024-01-31T08:07:14.656Z,100759.78
2024-01-31T08:08:17.611Z,100771.66
2024-01-31T08:09:22.794Z,100769.75
2024-01-31T08:10:24.942Z,100766.44
2024-01-31T08:11:26.537Z,100761.59
2024-01-31T08:12:28.056Z,100759.97
2024-01-31T08:13:29.813Z,100765.09
2024-01-31T08:14:31.432Z,100761.50
2024-01-31T08:15:33.898Z,100733.22
2024-01-31T08:16:35.596Z,100763.41
2024-01-31T08:17:37.295Z,100765.34
2024-01-31T08:18:39.570Z,100751.22
2024-01-31T08:19:41.330Z,100762.50
2024-01-31T08:20:43.056Z,100765.41
2024-01-31T08:21:44.686Z,100764.84
2024-01-31T08:22:46.308Z,100761.88
2024-01-31T08:23:47.898Z,100766.16
2024-01-31T08:24:50.946Z,100768.03
2024-01-31T08:25:52.639Z,100757.16
2024-01-31T08:26:54.307Z,100760.78
2024-01-31T08:27:55.880Z,100757.47
2024-01-31T08:29:07.545Z,100758.84
2024-01-31T08:30:17.960Z,100759.59
2024-01-31T08:31:19.585Z,100755.84
2024-01-31T08:32:21.172Z,100751.53
2024-01-31T08:33:22.893Z,100762.31
2024-01-31T08:34:27.417Z,100763.56
2024-01-31T08:35:31.574Z,100764.13
2024-01-31T08:36:33.206Z,100765.63
2024-01-31T08:37:34.976Z,100760.34
2024-01-31T08:38:39.446Z,100755.72
2024-01-31T08:39:42.319Z,100747.09
2024-01-31T08:40:43.858Z,100749.19
2024-01-31T08:41:45.702Z,100752.47
2024-01-31T08:42:47.385Z,100746.25
2024-01-31T08:43:48.998Z,100763.09
2024-01-31T08:44:51.662Z,100743.06
2024-01-31T08:45:54.537Z,100754.59
2024-01-31T08:47:04.509Z,100749.16
2024-01-31T08:48:17.724Z,100749.00
2024-01-31T08:49:19.499Z,100743.25
2024-01-31T08:50:21.371Z,100741.41
2024-01-31T08:51:23.762Z,100739.38
2024-01-31T08:52:25.358Z,100734.84
2024-01-31T08:53:26.942Z,100753.31
2024-01-31T08:54:28.565Z,100743.47
2024-01-31T08:55:30.315Z,100732.16
2024-01-31T08:56:32.200Z,100739.75
2024-01-31T08:57:33.885Z,100733.78
2024-01-31T08:58:35.505Z,100728.97
2024-01-31T08:59:37.040Z,100710.84
2024-01-31T09:00:38.657Z,100724.75
2024-01-31T09:01:47.249Z,100725.59
2024-01-31T09:02:49.079Z,100718.59
2024-01-31T09:03:50.766Z,100718.34
2024-01-31T09:04:52.421Z,100725.03
2024-01-31T09:05:55.266Z,100712.63
2024-01-31T09:06:57.138Z,100703.59
2024-01-31T09:08:00.729Z,100702.81
2024-01-31T09:09:02.501Z,100698.03
2024-01-31T09:10:05.740Z,100711.56
2024-01-31T09:11:07.365Z,100701.56
2024-01-31T09:12:09.764Z,100703.63
2024-01-31T09:13:11.440Z,100706.88
2024-01-31T09:14:13.790Z,100686.94
2024-01-31T09:15:16.107Z,100688.63
2024-01-31T09:16:18.099Z,100699.41
2024-01-31T09:17:19.786Z,100701.66
2024-01-31T09:18:22.213Z,100704.63
2024-01-31T09:19:24.135Z,100690.59
2024-01-31T09:20:25.774Z,100704.66
2024-01-31T09:21:28.245Z,100698.19
2024-01-31T09:22:29.862Z,100694.69
2024-01-31T09:23:31.445Z,100702.34
2024-01-31T09:24:33.002Z,100695.19
2024-01-31T09:25:34.690Z,100688.31
2024-01-31T09:26:36.272Z,100695.25
2024-01-31T09:27:38.065Z,100688.09
2024-01-31T09:28:40.515Z,100688.78
2024-01-31T09:29:44.400Z,100682.94
2024-01-31T09:30:46.307Z,100680.44
2024-01-31T09:31:48.501Z,100675.22
2024-01-31T09:32:50.201Z,100665.00
2024-01-31T09:33:53.085Z,100673.50
2024-01-31T09:34:56.969Z,100668.16
2024-01-31T09:35:59.059Z,100666.28
2024-01-31T09:37:00.645Z,100668.38
2024-01-31T09:38:02.291Z,100664.72
2024-01-31T09:39:04.811Z,100664.00
2024-01-31T09:40:09.334Z,100667.06
2024-01-31T09:41:12.475Z,100652.88
2024-01-31T09:42:14.067Z,100648.25
2024-01-31T09:43:15.701Z,100650.00
2024-01-31T09:44:18.971Z,100645.72
2024-01-31T09:45:22.690Z,100639.63
2024-01-31T09:46:24.786Z,100643.88
2024-01-31T09:47:29.005Z,100637.13
2024-01-31T09:48:32.012Z,100633.34
2024-01-31T09:49:33.809Z,100645.56
2024-01-31T09:50:35.464Z,100633.84
2024-01-31T09:51:38.774Z,100630.41
2024-01-31T09:52:41.984Z,100632.38
2024-01-31T09:53:46.751Z,100631.28
2024-01-31T09:54:48.500Z,100627.91
2024-01-31T09:55:56.339Z,100628.38
2024-01-31T09:56:58.726Z,100626.06
2024-01-31T09:58:01.476Z,100629.00
2024-01-31T09:59:04.519Z,100627.19
2024-01-31T10:00:06.724Z,100622.19
2024-01-31T10:01:14.801Z,100623.41
2024-01-31T10:02:23.805Z,100616.16
2024-01-31T10:03:25.806Z,100611.50
2024-01-31T10:04:27.491Z,100612.50
2024-01-31T10:05:29.060Z,100612.25
2024-01-31T10:06:31.184Z,100613.50
2024-01-31T10:07:32.849Z,100606.22
2024-01-31T10:08:36.190Z,100599.31
2024-01-31T10:09:37.835Z,100594.78
2024-01-31T10:10:39.623Z,100596.06
2024-01-31T10:11:47.680Z,100598.84
2024-01-31T10:12:49.256Z,100585.22
2024-01-31T10:13:52.157Z,100596.19
2024-01-31T10:14:53.992Z,100591.84
2024-01-31T10:15:55.728Z,100584.06
2024-01-31T10:16:57.333Z,100588.84
2024-01-31T10:17:59.530Z,100582.97
2024-01-31T10:19:01.208Z,100571.63
2024-01-31T10:20:08.721Z,100575.53
2024-01-31T10:21:11.951Z,100580.19
2024-01-31T10:22:16.119Z,100566.22
2024-01-31T10:23:18.039Z,100576.06
2024-01-31T10:24:19.774Z,100574.88
2024-01-31T10:25:21.763Z,100564.25
2024-01-31T10:26:23.881Z,100574.72
2024-01-31T10:27:25.688Z,100570.50
2024-01-31T10:28:29.700Z,100570.59
2024-01-31T10:29:33.074Z,100566.75
2024-01-31T10:30:44.365Z,100569.69
2024-01-31T10:31:47.900Z,100565.25
2024-01-31T10:32:51.406Z,100568.16
2024-01-31T10:33:53.753Z,100564.75
2024-01-31T10:35:20.404Z,100567.28
2024-01-31T10:37:08.550Z,100561.22
2024-01-31T10:37:54.810Z,100551.69
2024-01-31T10:38:59.729Z,100547.19
2024-01-31T10:40:03.159Z,100556.19
2024-01-31T10:41:07.702Z,100550.97
2024-01-31T10:42:10.174Z,100556.47
2024-01-31T10:43:11.825Z,100549.56
2024-01-31T10:44:15.916Z,100550.56
2024-01-31T10:45:20.165Z,100554.50
2024-01-31T10:46:21.949Z,100558.13
2024-01-31T10:47:23.571Z,100543.06
2024-01-31T10:48:25.410Z,100556.84
2024-01-31T10:49:27.130Z,100550.91
2024-01-31T10:50:32.906Z,100547.28
2024-01-31T10:51:37.075Z,100546.66
2024-01-31T10:52:40.866Z,100548.84
2024-01-31T10:53:44.108Z,100551.56
2024-01-31T10:54:53.653Z,100544.03
2024-01-31T10:55:56.320Z,100543.53
2024-01-31T10:56:58.783Z,100552.91
2024-01-31T10:58:02.560Z,100541.66
2024-01-31T10:59:06.321Z,100546.34
2024-01-31T11:00:23.152Z,100536.88
2024-01-31T11:01:31.277Z,100542.13
2024-01-31T11:02:33.672Z,100528.63
2024-01-31T11:03:35.890Z,100537.72
2024-01-31T11:04:40.266Z,100539.84
2024-01-31T11:05:42.615Z,100538.31
2024-01-31T11:06:44.452Z,100538.34
2024-01-31T11:07:46.947Z,100537.75
2024-01-31T11:08:48.983Z,100532.44
2024-01-31T11:09:50.616Z,100520.69
2024-01-31T11:10:52.249Z,100526.38
2024-01-31T11:12:04.900Z,100520.75
2024-01-31T11:13:07.049Z,100531.28
2024-01-31T11:14:10.409Z,100530.88
2024-01-31T11:15:12.352Z,100529.94
2024-01-31T11:16:25.274Z,100530.00
2024-01-31T11:17:34.584Z,100519.38
2024-01-31T11:18:37.571Z,100522.75
2024-01-31T11:19:52.240Z,100515.88
2024-01-31T11:20:54.042Z,100505.00
2024-01-31T11:21:55.742Z,100509.44
2024-01-31T11:23:00.742Z,100515.03
2024-01-31T11:24:02.494Z,100513.03
2024-01-31T11:25:08.861Z,100505.72
2024-01-31T11:26:10.548Z,100503.44
2024-01-31T11:27:13.953Z,100505.28
2024-01-31T11:28:18.096Z,100500.59
2024-01-31T11:29:20.661Z,100503.88
2024-01-31T11:30:24.119Z,100509.41
2024-01-31T11:31:25.896Z,100500.09
2024-01-31T11:32:27.746Z,100499.75
2024-01-31T11:33:30.145Z,100504.88
2024-01-31T11:34:32.074Z,100494.88
2024-01-31T11:35:34.076Z,100496.66
2024-01-31T11:36:35.680Z,100489.34
2024-01-31T11:37:37.268Z,100492.19
2024-01-31T11:38:39.549Z,100478.41
2024-01-31T11:39:41.354Z,100457.81
2024-01-31T11:40:42.989Z,100482.91
2024-01-31T11:41:44.618Z,100488.19
2024-01-31T11:42:47.903Z,100495.56
2024-01-31T11:43:50.098Z,100491.50
2024-01-31T11:44:52.464Z,100477.47
2024-01-31T11:45:54.346Z,100482.50
2024-01-31T11:46:55.985Z,100481.13
2024-01-31T11:47:59.630Z,100484.69
2024-01-31T11:49:01.617Z,100478.56
2024-01-31T11:50:04.278Z,100477.88
2024-01-31T11:51:06.110Z,100469.81
2024-01-31T11:52:07.739Z,100479.69
2024-01-31T11:53:09.588Z,100478.22